createdAt,value
2018-12-30T00:00:43.719Z,1023.43
2018-12-30T00:01:43.932Z,1023.49
2018-12-30T00:02:43.689Z,1023.42
2018-12-30T00:03:43.685Z,1023.52
2018-12-30T00:04:43.681Z,1023.51
2018-12-30T00:05:43.689Z,1023.57
2018-12-30T00:06:43.667Z,1023.50
2018-12-30T00:07:43.677Z,1023.50
2018-12-30T00:08:43.659Z,1023.56
2018-12-30T00:09:43.650Z,1023.64
2018-12-30T00:10:43.653Z,1023.67
2018-12-30T00:11:43.650Z,1023.69
2018-12-30T00:12:43.642Z,1023.62
2018-12-30T00:13:43.632Z,1023.65
2018-12-30T00:14:43.611Z,1023.69
2018-12-30T00:15:43.605Z,1023.74
2018-12-30T00:16:43.614Z,1023.74
2018-12-30T00:17:43.595Z,1023.68
2018-12-30T00:18:43.618Z,1023.70
2018-12-30T00:19:43.585Z,1023.76
2018-12-30T00:20:43.582Z,1023.80
2018-12-30T00:21:43.570Z,1023.80
2018-12-30T00:22:43.567Z,1023.76
2018-12-30T00:23:43.569Z,1023.83
2018-12-30T00:24:43.545Z,1023.87
2018-12-30T00:25:43.545Z,1023.87
2018-12-30T00:26:43.540Z,1023.87
2018-12-30T00:27:43.542Z,1023.80
2018-12-30T00:28:43.529Z,1023.85
2018-12-30T00:29:43.516Z,1023.86
2018-12-30T00:30:43.526Z,1023.82
2018-12-30T00:31:43.518Z,1023.78
2018-12-30T00:32:43.497Z,1023.81
2018-12-30T00:33:43.590Z,1023.81
2018-12-30T00:34:43.512Z,1023.87
2018-12-30T00:35:43.488Z,1023.90
2018-12-30T00:36:43.473Z,1023.89
2018-12-30T00:37:43.483Z,1023.92
2018-12-30T00:38:43.460Z,1024.00
2018-12-30T00:39:43.464Z,1023.98
2018-12-30T00:40:43.457Z,1024.06
2018-12-30T00:41:43.452Z,1024.13
2018-12-30T00:42:43.442Z,1024.18
2018-12-30T00:43:43.441Z,1024.25
2018-12-30T00:44:43.427Z,1024.24
2018-12-30T00:45:43.422Z,1024.18
2018-12-30T00:46:43.409Z,1024.16
2018-12-30T00:47:43.412Z,1024.19
2018-12-30T00:48:43.391Z,1024.23
2018-12-30T00:49:43.396Z,1024.23
2018-12-30T00:50:43.378Z,1024.29
2018-12-30T00:51:43.369Z,1024.33
2018-12-30T00:52:43.367Z,1024.35
2018-12-30T00:53:43.393Z,1024.34
2018-12-30T00:54:43.353Z,1024.32
2018-12-30T00:55:43.344Z,1024.38
2018-12-30T00:56:43.547Z,1024.45
2018-12-30T00:57:43.343Z,1024.44
2018-12-30T00:58:43.327Z,1024.44
2018-12-30T00:59:43.322Z,1024.43
2018-12-30T01:00:43.328Z,1024.41
2018-12-30T01:01:43.521Z,1024.37
2018-12-30T01:02:43.306Z,1024.37
2018-12-30T01:03:43.294Z,1024.42
2018-12-30T01:04:43.299Z,1024.45
2018-12-30T01:05:43.279Z,1024.52
2018-12-30T01:06:43.287Z,1024.53
2018-12-30T01:07:43.268Z,1024.57
2018-12-30T01:08:43.262Z,1024.56
2018-12-30T01:09:43.252Z,1024.61
2018-12-30T01:10:43.254Z,1024.62
2018-12-30T01:11:43.238Z,1024.63
2018-12-30T01:12:43.237Z,1024.66
2018-12-30T01:13:43.226Z,1024.62
2018-12-30T01:14:43.222Z,1024.66
2018-12-30T01:15:43.225Z,1024.73
2018-12-30T01:16:43.217Z,1024.73
2018-12-30T01:17:43.223Z,1024.75
2018-12-30T01:18:43.210Z,1024.79
2018-12-30T01:19:43.191Z,1024.71
2018-12-30T01:20:43.198Z,1024.74
2018-12-30T01:21:43.176Z,1024.74
2018-12-30T01:22:43.169Z,1024.74
2018-12-30T01:23:43.176Z,1024.72
2018-12-30T01:24:43.362Z,1024.75
2018-12-30T01:25:43.152Z,1024.67
2018-12-30T01:26:43.149Z,1024.60
2018-12-30T01:27:43.339Z,1024.68
2018-12-30T01:28:43.131Z,1024.68
2018-12-30T01:29:43.129Z,1024.77
2018-12-30T01:30:43.114Z,1024.74
2018-12-30T01:31:43.108Z,1024.79
2018-12-30T01:32:43.100Z,1024.79
2018-12-30T01:33:43.091Z,1024.88
2018-12-30T01:34:43.088Z,1024.91
2018-12-30T01:35:43.104Z,1024.86
2018-12-30T01:36:43.073Z,1024.84
2018-12-30T01:37:43.088Z,1024.88
2018-12-30T01:38:43.080Z,1024.91
2018-12-30T01:39:43.060Z,1024.95
2018-12-30T01:40:43.044Z,1024.97
2018-12-30T01:41:43.260Z,1024.94
2018-12-30T01:42:43.042Z,1025.04
2018-12-30T01:43:43.048Z,1025.09
2018-12-30T01:44:43.024Z,1025.06
2018-12-30T01:45:43.017Z,1025.01
2018-12-30T01:46:43.011Z,1025.03
2018-12-30T01:47:43.234Z,1025.02
2018-12-30T01:48:42.996Z,1025.05
2018-12-30T01:49:43.001Z,1025.00
2018-12-30T01:50:42.989Z,1024.99
2018-12-30T01:51:42.971Z,1025.02
2018-12-30T01:52:42.983Z,1024.99
2018-12-30T01:53:42.967Z,1024.92
2018-12-30T01:54:42.966Z,1024.93
2018-12-30T01:55:42.975Z,1024.99
2018-12-30T01:56:42.942Z,1024.96
2018-12-30T01:57:42.936Z,1024.98
2018-12-30T01:58:42.930Z,1025.08
2018-12-30T01:59:42.922Z,1025.10
2018-12-30T02:00:42.929Z,1025.08
2018-12-30T02:01:42.916Z,1025.04
2018-12-30T02:02:42.917Z,1025.06
2018-12-30T02:03:42.900Z,1025.07
2018-12-30T02:04:42.885Z,1025.07
2018-12-30T02:05:43.089Z,1025.16
2018-12-30T02:06:42.896Z,1025.17
2018-12-30T02:07:42.875Z,1025.22
2018-12-30T02:08:42.861Z,1025.31
2018-12-30T02:09:42.861Z,1025.34
2018-12-30T02:10:42.853Z,1025.33
2018-12-30T02:11:42.839Z,1025.30
2018-12-30T02:12:42.856Z,1025.32
2018-12-30T02:13:42.846Z,1025.36
2018-12-30T02:14:42.830Z,1025.34
2018-12-30T02:15:42.821Z,1025.28
2018-12-30T02:16:42.844Z,1025.28
2018-12-30T02:17:42.828Z,1025.28
2018-12-30T02:18:42.808Z,1025.29
2018-12-30T02:19:42.791Z,1025.30
2018-12-30T02:20:42.800Z,1025.34
2018-12-30T02:21:42.775Z,1025.37
2018-12-30T02:22:42.825Z,1025.45
2018-12-30T02:23:42.761Z,1025.52
2018-12-30T02:24:42.769Z,1025.54
2018-12-30T02:25:42.757Z,1025.59
2018-12-30T02:26:42.751Z,1025.59
2018-12-30T02:27:42.753Z,1025.53
2018-12-30T02:28:42.730Z,1025.51
2018-12-30T02:29:42.729Z,1025.54
2018-12-30T02:30:42.725Z,1025.54
2018-12-30T02:31:42.915Z,1025.53
2018-12-30T02:32:42.914Z,1025.62
2018-12-30T02:33:42.701Z,1025.59
2018-12-30T02:34:42.714Z,1025.52
2018-12-30T02:35:42.712Z,1025.48
2018-12-30T02:36:42.694Z,1025.47
2018-12-30T02:37:42.675Z,1025.44
2018-12-30T02:38:42.677Z,1025.55
2018-12-30T02:39:42.682Z,1025.66
2018-12-30T02:40:42.687Z,1025.68
2018-12-30T02:41:42.659Z,1025.65
2018-12-30T02:42:42.904Z,1025.62
2018-12-30T02:43:42.638Z,1025.62
2018-12-30T02:44:42.639Z,1025.61
2018-12-30T02:45:42.623Z,1025.56
2018-12-30T02:46:42.625Z,1025.51
2018-12-30T02:47:42.657Z,1025.50
2018-12-30T02:48:42.607Z,1025.51
2018-12-30T02:49:42.617Z,1025.50
2018-12-30T02:50:42.600Z,1025.49
2018-12-30T02:51:50.094Z,1025.51
2018-12-30T02:52:42.582Z,1025.50
2018-12-30T02:53:42.576Z,1025.54
2018-12-30T02:54:42.566Z,1025.53
2018-12-30T02:55:42.562Z,1025.54
2018-12-30T02:56:42.567Z,1025.56
2018-12-30T02:57:42.555Z,1025.48
2018-12-30T02:58:42.558Z,1025.44
2018-12-30T02:59:42.536Z,1025.47
2018-12-30T03:00:42.525Z,1025.53
2018-12-30T03:01:42.521Z,1025.57
2018-12-30T03:02:42.521Z,1025.59
2018-12-30T03:03:42.509Z,1025.56
2018-12-30T03:04:42.499Z,1025.64
2018-12-30T03:05:42.499Z,1025.69
2018-12-30T03:06:42.490Z,1025.73
2018-12-30T03:07:42.480Z,1025.71
2018-12-30T03:08:42.684Z,1025.75
2018-12-30T03:09:42.679Z,1025.73
2018-12-30T03:10:42.462Z,1025.80
2018-12-30T03:11:42.471Z,1025.81
2018-12-30T03:12:42.458Z,1025.71
2018-12-30T03:13:42.525Z,1025.66
2018-12-30T03:14:42.437Z,1025.63
2018-12-30T03:15:42.445Z,1025.65
2018-12-30T03:16:42.439Z,1025.73
2018-12-30T03:17:42.422Z,1025.80
2018-12-30T03:18:42.415Z,1025.80
2018-12-30T03:19:42.613Z,1025.72
2018-12-30T03:20:42.402Z,1025.69
2018-12-30T03:21:42.394Z,1025.63
2018-12-30T03:22:42.384Z,1025.63
2018-12-30T03:23:42.582Z,1025.60
2018-12-30T03:24:42.634Z,1025.66
2018-12-30T03:25:42.569Z,1025.66
2018-12-30T03:26:42.569Z,1025.70
2018-12-30T03:27:42.357Z,1025.70
2018-12-30T03:28:42.348Z,1025.68
2018-12-30T03:29:42.550Z,1025.66
2018-12-30T03:30:42.334Z,1025.72
2018-12-30T03:31:42.333Z,1025.66
2018-12-30T03:32:42.346Z,1025.58
2018-12-30T03:33:42.331Z,1025.54
2018-12-30T03:34:42.317Z,1025.46
2018-12-30T03:35:42.306Z,1025.40
2018-12-30T03:36:42.318Z,1025.37
2018-12-30T03:37:42.294Z,1025.42
2018-12-30T03:38:42.284Z,1025.43
2018-12-30T03:39:42.284Z,1025.51
2018-12-30T03:40:42.285Z,1025.58
2018-12-30T03:41:42.295Z,1025.61
2018-12-30T03:42:42.265Z,1025.62
2018-12-30T03:43:42.254Z,1025.64
2018-12-30T03:44:42.276Z,1025.69
2018-12-30T03:45:42.248Z,1025.72
2018-12-30T03:46:42.436Z,1025.76
2018-12-30T03:47:42.227Z,1025.79
2018-12-30T03:48:42.239Z,1025.79
2018-12-30T03:49:42.216Z,1025.81
2018-12-30T03:50:42.222Z,1025.83
2018-12-30T03:51:42.207Z,1025.82
2018-12-30T03:52:42.200Z,1025.82
2018-12-30T03:53:42.193Z,1025.82
2018-12-30T03:54:42.198Z,1025.83
2018-12-30T03:55:42.380Z,1025.82
2018-12-30T03:56:42.197Z,1025.74
2018-12-30T03:57:42.178Z,1025.70
2018-12-30T03:58:42.177Z,1025.73
2018-12-30T03:59:42.184Z,1025.80
2018-12-30T04:00:42.155Z,1025.84
2018-12-30T04:01:42.148Z,1025.85
2018-12-30T04:02:42.148Z,1025.87
2018-12-30T04:03:42.130Z,1025.88
2018-12-30T04:04:42.333Z,1025.97
2018-12-30T04:05:42.132Z,1026.00
2018-12-30T04:06:42.108Z,1025.99
2018-12-30T04:07:42.101Z,1026.00
2018-12-30T04:08:42.113Z,1026.03
2018-12-30T04:09:42.094Z,1026.02
2018-12-30T04:10:42.141Z,1025.96
2018-12-30T04:11:42.078Z,1026.01
2018-12-30T04:12:42.075Z,1025.99
2018-12-30T04:13:42.079Z,1026.00
2018-12-30T04:14:42.078Z,1026.00
2018-12-30T04:15:42.050Z,1026.05
2018-12-30T04:16:42.248Z,1026.02
2018-12-30T04:17:42.043Z,1025.92
2018-12-30T04:18:42.032Z,1025.89
2018-12-30T04:19:42.239Z,1026.00
2018-12-30T04:20:42.029Z,1026.12
2018-12-30T04:21:42.231Z,1025.94
2018-12-30T04:22:42.017Z,1025.66
2018-12-30T04:23:42.004Z,1025.80
2018-12-30T04:24:42.000Z,1025.97
2018-12-30T04:25:42.016Z,1026.00
2018-12-30T04:26:42.002Z,1025.89
2018-12-30T04:27:42.192Z,1025.75
2018-12-30T04:28:41.983Z,1025.77
2018-12-30T04:29:41.961Z,1025.80
2018-12-30T04:30:42.178Z,1025.87
2018-12-30T04:31:42.168Z,1025.93
2018-12-30T04:32:42.163Z,1025.94
2018-12-30T04:33:41.951Z,1025.94
2018-12-30T04:34:41.961Z,1026.01
2018-12-30T04:35:42.156Z,1026.06
2018-12-30T04:36:42.002Z,1025.99
2018-12-30T04:37:41.934Z,1026.02
2018-12-30T04:38:41.919Z,1026.04
2018-12-30T04:39:41.912Z,1026.11
2018-12-30T04:40:42.099Z,1026.14
2018-12-30T04:41:41.902Z,1026.04
2018-12-30T04:42:41.884Z,1026.02
2018-12-30T04:43:42.092Z,1026.11
2018-12-30T04:44:41.872Z,1026.31
2018-12-30T04:45:41.889Z,1026.33
2018-12-30T04:46:41.861Z,1026.13
2018-12-30T04:47:42.059Z,1026.16
2018-12-30T04:48:41.872Z,1026.27
2018-12-30T04:49:41.849Z,1026.37
2018-12-30T04:50:41.832Z,1026.22
2018-12-30T04:51:41.841Z,1026.18
2018-12-30T04:52:42.021Z,1026.19
2018-12-30T04:53:41.828Z,1026.23
2018-12-30T04:54:41.822Z,1026.26
2018-12-30T04:55:41.803Z,1026.32
2018-12-30T04:56:41.804Z,1026.30
2018-12-30T04:57:41.790Z,1026.29
2018-12-30T04:58:41.821Z,1026.30
2018-12-30T04:59:41.774Z,1026.34
2018-12-30T05:00:41.974Z,1026.38
2018-12-30T05:01:41.759Z,1026.39
2018-12-30T05:02:41.767Z,1026.36
2018-12-30T05:03:41.757Z,1026.36
2018-12-30T05:04:41.950Z,1026.29
2018-12-30T05:05:41.743Z,1026.22
2018-12-30T05:06:41.753Z,1026.09
2018-12-30T05:07:41.941Z,1026.13
2018-12-30T05:08:42.320Z,1026.27
2018-12-30T05:09:41.726Z,1026.30
2018-12-30T05:10:41.739Z,1026.13
2018-12-30T05:11:41.699Z,1026.18
2018-12-30T05:12:41.697Z,1026.45
2018-12-30T05:13:41.719Z,1026.60
2018-12-30T05:14:41.689Z,1026.52
2018-12-30T05:15:41.678Z,1026.41
2018-12-30T05:16:41.663Z,1026.37
2018-12-30T05:17:41.666Z,1026.42
2018-12-30T05:18:41.653Z,1026.52
2018-12-30T05:19:41.651Z,1026.66
2018-12-30T05:20:41.649Z,1026.65
2018-12-30T05:21:41.643Z,1026.61
2018-12-30T05:22:41.632Z,1026.59
2018-12-30T05:23:41.626Z,1026.56
2018-12-30T05:24:41.825Z,1026.53
2018-12-30T05:25:41.620Z,1026.58
2018-12-30T05:26:41.608Z,1026.61
2018-12-30T05:27:41.673Z,1026.56
2018-12-30T05:28:41.619Z,1026.43
2018-12-30T05:29:41.588Z,1026.30
2018-12-30T05:30:41.587Z,1026.19
2018-12-30T05:31:41.589Z,1026.06
2018-12-30T05:32:41.576Z,1026.04
2018-12-30T05:33:41.557Z,1026.08
2018-12-30T05:34:41.761Z,1026.20
2018-12-30T05:35:41.566Z,1026.25
2018-12-30T05:36:41.554Z,1026.33
2018-12-30T05:37:41.534Z,1026.40
2018-12-30T05:38:41.531Z,1026.57
2018-12-30T05:39:41.527Z,1026.66
2018-12-30T05:40:41.514Z,1026.65
2018-12-30T05:41:41.528Z,1026.66
2018-12-30T05:42:41.520Z,1026.50
2018-12-30T05:43:41.718Z,1026.45
2018-12-30T05:44:41.495Z,1026.50
2018-12-30T05:45:41.488Z,1026.55
2018-12-30T05:46:41.481Z,1026.49
2018-12-30T05:47:41.474Z,1026.39
2018-12-30T05:48:41.481Z,1026.31
2018-12-30T05:49:41.676Z,1026.34
2018-12-30T05:50:41.458Z,1026.38
2018-12-30T05:51:41.459Z,1026.44
2018-12-30T05:52:42.090Z,1026.42
2018-12-30T05:53:41.437Z,1026.37
2018-12-30T05:54:41.422Z,1026.32
2018-12-30T05:55:41.629Z,1026.38
2018-12-30T05:56:41.416Z,1026.58
2018-12-30T05:57:41.428Z,1026.59
2018-12-30T05:58:41.415Z,1026.56
2018-12-30T05:59:41.393Z,1026.49
2018-12-30T06:00:41.390Z,1026.48
2018-12-30T06:01:41.587Z,1026.54
2018-12-30T06:02:41.428Z,1026.58
2018-12-30T06:03:41.368Z,1026.52
2018-12-30T06:04:41.366Z,1026.44
2018-12-30T06:05:41.569Z,1026.45
2018-12-30T06:06:41.558Z,1026.57
2018-12-30T06:07:41.349Z,1026.63
2018-12-30T06:08:41.362Z,1026.68
2018-12-30T06:09:41.538Z,1026.64
2018-12-30T06:10:41.344Z,1026.65
2018-12-30T06:11:41.331Z,1026.65
2018-12-30T06:12:41.310Z,1026.76
2018-12-30T06:13:41.522Z,1026.74
2018-12-30T06:14:41.304Z,1026.70
2018-12-30T06:15:41.312Z,1026.70
2018-12-30T06:16:41.291Z,1026.67
2018-12-30T06:17:41.310Z,1026.65
2018-12-30T06:18:41.304Z,1026.76
2018-12-30T06:19:41.301Z,1026.77
2018-12-30T06:20:41.267Z,1026.83
2018-12-30T06:21:41.473Z,1026.90
2018-12-30T06:22:41.277Z,1026.91
2018-12-30T06:23:41.247Z,1026.81
2018-12-30T06:24:41.235Z,1026.80
2018-12-30T06:25:41.235Z,1026.85
2018-12-30T06:26:41.233Z,1026.97
2018-12-30T06:27:41.217Z,1026.95
2018-12-30T06:28:41.227Z,1026.95
2018-12-30T06:29:41.417Z,1026.92
2018-12-30T06:30:41.259Z,1026.89
2018-12-30T06:31:41.202Z,1026.90
2018-12-30T06:32:41.190Z,1026.93
2018-12-30T06:33:41.186Z,1026.96
2018-12-30T06:34:41.186Z,1027.03
2018-12-30T06:35:41.182Z,1027.04
2018-12-30T06:36:41.177Z,1027.10
2018-12-30T06:37:41.166Z,1027.10
2018-12-30T06:38:41.146Z,1027.03
2018-12-30T06:39:41.146Z,1026.95
2018-12-30T06:40:41.342Z,1027.04
2018-12-30T06:41:41.329Z,1027.08
2018-12-30T06:42:41.123Z,1027.08
2018-12-30T06:43:41.123Z,1027.12
2018-12-30T06:44:41.119Z,1027.17
2018-12-30T06:45:41.109Z,1027.23
2018-12-30T06:46:41.094Z,1027.27
2018-12-30T06:47:41.097Z,1027.23
2018-12-30T06:48:41.099Z,1027.22
2018-12-30T06:49:41.080Z,1027.21
2018-12-30T06:50:41.071Z,1027.23
2018-12-30T06:51:41.069Z,1027.27
2018-12-30T06:52:41.061Z,1027.32
2018-12-30T06:53:41.065Z,1027.33
2018-12-30T06:54:41.065Z,1027.30
2018-12-30T06:55:41.037Z,1027.23
2018-12-30T06:56:41.237Z,1027.23
2018-12-30T06:57:41.043Z,1027.28
2018-12-30T06:58:41.025Z,1027.37
2018-12-30T06:59:41.034Z,1027.37
2018-12-30T07:00:41.024Z,1027.37
2018-12-30T07:01:41.028Z,1027.36
2018-12-30T07:02:41.015Z,1027.38
2018-12-30T07:03:40.992Z,1027.46
2018-12-30T07:04:40.999Z,1027.44
2018-12-30T07:05:40.992Z,1027.38
2018-12-30T07:06:41.178Z,1027.43
2018-12-30T07:07:41.172Z,1027.45
2018-12-30T07:08:41.196Z,1027.48
2018-12-30T07:09:40.957Z,1027.58
2018-12-30T07:10:40.948Z,1027.54
2018-12-30T07:11:40.943Z,1027.55
2018-12-30T07:12:41.138Z,1027.60
2018-12-30T07:13:40.925Z,1027.57
2018-12-30T07:14:40.937Z,1027.55
2018-12-30T07:15:40.911Z,1027.60
2018-12-30T07:16:40.941Z,1027.71
2018-12-30T07:17:40.915Z,1027.74
2018-12-30T07:18:40.894Z,1027.71
2018-12-30T07:19:40.897Z,1027.73
2018-12-30T07:20:40.884Z,1027.76
2018-12-30T07:21:40.872Z,1027.75
2018-12-30T07:22:41.077Z,1027.75
2018-12-30T07:23:40.866Z,1027.67
2018-12-30T07:24:40.886Z,1027.70
2018-12-30T07:25:40.869Z,1027.71
2018-12-30T07:26:40.847Z,1027.72
2018-12-30T07:27:40.834Z,1027.74
2018-12-30T07:28:40.846Z,1027.66
2018-12-30T07:29:40.824Z,1027.59
2018-12-30T07:30:40.859Z,1027.61
2018-12-30T07:31:40.808Z,1027.70
2018-12-30T07:32:40.820Z,1027.71
2018-12-30T07:33:40.799Z,1027.64
2018-12-30T07:34:40.815Z,1027.55
2018-12-30T07:35:40.815Z,1027.56
2018-12-30T07:36:40.782Z,1027.66
2018-12-30T07:37:40.981Z,1027.73
2018-12-30T07:38:40.798Z,1027.67
2018-12-30T07:39:40.785Z,1027.67
2018-12-30T07:40:40.771Z,1027.65
2018-12-30T07:41:40.762Z,1027.63
2018-12-30T07:42:40.759Z,1027.64
2018-12-30T07:43:40.737Z,1027.63
2018-12-30T07:44:40.754Z,1027.61
2018-12-30T07:45:40.724Z,1027.61
2018-12-30T07:46:40.743Z,1027.64
2018-12-30T07:47:40.725Z,1027.62
2018-12-30T07:48:40.719Z,1027.59
2018-12-30T07:49:40.703Z,1027.68
2018-12-30T07:50:40.701Z,1027.69
2018-12-30T07:51:40.684Z,1027.68
2018-12-30T07:52:40.682Z,1027.65
2018-12-30T07:53:40.683Z,1027.63
2018-12-30T07:54:40.664Z,1027.67
2018-12-30T07:55:40.668Z,1027.65
2018-12-30T07:56:40.856Z,1027.66
2018-12-30T07:57:40.645Z,1027.63
2018-12-30T07:58:40.646Z,1027.66
2018-12-30T07:59:40.840Z,1027.66
2018-12-30T08:00:40.630Z,1027.72
2018-12-30T08:01:40.625Z,1027.78
2018-12-30T08:02:40.630Z,1027.78
2018-12-30T08:03:40.608Z,1027.72
2018-12-30T08:04:40.817Z,1027.70
2018-12-30T08:05:40.804Z,1027.74
2018-12-30T08:06:40.796Z,1027.78
2018-12-30T08:07:40.593Z,1027.80
2018-12-30T08:08:40.580Z,1027.86
2018-12-30T08:09:40.778Z,1027.81
2018-12-30T08:10:40.769Z,1027.86
2018-12-30T08:11:40.567Z,1027.88
2018-12-30T08:12:40.761Z,1027.90
2018-12-30T08:13:40.555Z,1027.89
2018-12-30T08:14:40.540Z,1027.91
2018-12-30T08:15:40.548Z,1027.95
2018-12-30T08:16:40.537Z,1027.89
2018-12-30T08:17:40.526Z,1027.91
2018-12-30T08:18:40.518Z,1027.89
2018-12-30T08:19:40.546Z,1027.89
2018-12-30T08:20:40.504Z,1027.90
2018-12-30T08:21:40.527Z,1027.94
2018-12-30T08:22:40.488Z,1027.93
2018-12-30T08:23:40.482Z,1027.96
2018-12-30T08:24:40.485Z,1028.00
2018-12-30T08:25:40.472Z,1027.98
2018-12-30T08:26:40.666Z,1028.02
2018-12-30T08:27:40.463Z,1028.04
2018-12-30T08:28:40.468Z,1028.06
2018-12-30T08:29:40.443Z,1028.01
2018-12-30T08:30:40.738Z,1028.00
2018-12-30T08:31:40.634Z,1027.93
2018-12-30T08:32:40.424Z,1027.87
2018-12-30T08:33:40.422Z,1027.83
2018-12-30T08:34:40.625Z,1027.88
2018-12-30T08:35:40.405Z,1027.87
2018-12-30T08:36:40.603Z,1027.78
2018-12-30T08:37:40.407Z,1027.76
2018-12-30T08:38:40.599Z,1027.75
2018-12-30T08:39:40.393Z,1027.78
2018-12-30T08:40:40.377Z,1027.71
2018-12-30T08:41:40.373Z,1027.69
2018-12-30T08:42:40.365Z,1027.75
2018-12-30T08:43:40.369Z,1027.81
2018-12-30T08:44:40.355Z,1027.79
2018-12-30T08:45:40.375Z,1027.73
2018-12-30T08:46:40.550Z,1027.76
2018-12-30T08:47:40.548Z,1027.84
2018-12-30T08:48:40.333Z,1027.91
2018-12-30T08:49:40.545Z,1027.90
2018-12-30T08:50:40.335Z,1027.91
2018-12-30T08:51:40.311Z,1027.97
2018-12-30T08:52:40.327Z,1027.97
2018-12-30T08:53:40.325Z,1028.01
2018-12-30T08:54:40.299Z,1028.06
2018-12-30T08:55:40.283Z,1028.05
2018-12-30T08:56:40.301Z,1028.08
2018-12-30T08:57:40.281Z,1028.11
2018-12-30T08:58:40.258Z,1028.05
2018-12-30T08:59:40.461Z,1028.03
2018-12-30T09:00:40.276Z,1028.07
2018-12-30T09:01:40.259Z,1028.07
2018-12-30T09:02:40.450Z,1028.12
2018-12-30T09:03:40.232Z,1028.03
2018-12-30T09:04:40.229Z,1028.00
2018-12-30T09:05:40.227Z,1028.08
2018-12-30T09:06:40.237Z,1028.10
2018-12-30T09:07:40.217Z,1028.13
2018-12-30T09:08:40.225Z,1028.10
2018-12-30T09:09:40.210Z,1028.14
2018-12-30T09:10:40.219Z,1028.22
2018-12-30T09:11:40.183Z,1028.23
2018-12-30T09:12:40.195Z,1028.20
2018-12-30T09:13:40.199Z,1028.17
2018-12-30T09:14:40.185Z,1028.23
2018-12-30T09:15:40.165Z,1028.26
2018-12-30T09:16:40.152Z,1028.29
2018-12-30T09:17:40.147Z,1028.25
2018-12-30T09:18:40.153Z,1028.19
2018-12-30T09:19:40.163Z,1028.15
2018-12-30T09:20:40.145Z,1028.09
2018-12-30T09:21:40.148Z,1028.06
2018-12-30T09:22:40.141Z,1028.07
2018-12-30T09:23:40.123Z,1028.04
2018-12-30T09:24:40.107Z,1028.01
2018-12-30T09:25:40.311Z,1027.99
2018-12-30T09:26:40.114Z,1028.05
2018-12-30T09:27:40.086Z,1028.06
2018-12-30T09:28:40.097Z,1028.02
2018-12-30T09:29:40.073Z,1027.99
2018-12-30T09:30:40.068Z,1028.02
2018-12-30T09:31:40.287Z,1028.03
2018-12-30T09:32:40.068Z,1028.10
2018-12-30T09:33:40.066Z,1028.15
2018-12-30T09:34:40.058Z,1028.14
2018-12-30T09:35:40.038Z,1028.18
2018-12-30T09:36:40.037Z,1028.18
2018-12-30T09:37:40.033Z,1028.18
2018-12-30T09:38:40.026Z,1028.23
2018-12-30T09:39:40.037Z,1028.28
2018-12-30T09:40:40.024Z,1028.29
2018-12-30T09:41:40.029Z,1028.31
2018-12-30T09:42:40.003Z,1028.25
2018-12-30T09:43:39.995Z,1028.30
2018-12-30T09:44:40.009Z,1028.30
2018-12-30T09:45:39.986Z,1028.28
2018-12-30T09:46:40.191Z,1028.26
2018-12-30T09:47:39.982Z,1028.21
2018-12-30T09:48:39.970Z,1028.21
2018-12-30T09:49:39.976Z,1028.24
2018-12-30T09:50:39.950Z,1028.34
2018-12-30T09:51:39.942Z,1028.39
2018-12-30T09:52:39.955Z,1028.40
2018-12-30T09:53:45.055Z,1028.35
2018-12-30T09:54:40.145Z,1028.41
2018-12-30T09:55:40.151Z,1028.45
2018-12-30T09:56:39.934Z,1028.51
2018-12-30T09:57:39.916Z,1028.50
2018-12-30T09:58:39.926Z,1028.53
2018-12-30T09:59:39.916Z,1028.53
2018-12-30T10:00:39.909Z,1028.58
2018-12-30T10:01:39.891Z,1028.57
2018-12-30T10:02:39.884Z,1028.54
2018-12-30T10:03:39.882Z,1028.57
2018-12-30T10:04:40.100Z,1028.56
2018-12-30T10:05:39.881Z,1028.58
2018-12-30T10:06:39.882Z,1028.54
2018-12-30T10:07:39.859Z,1028.53
2018-12-30T10:08:39.860Z,1028.54
2018-12-30T10:09:39.876Z,1028.53
2018-12-30T10:10:39.844Z,1028.50
2018-12-30T10:11:39.861Z,1028.50
2018-12-30T10:12:39.825Z,1028.52
2018-12-30T10:13:39.817Z,1028.57
2018-12-30T10:14:39.826Z,1028.64
2018-12-30T10:15:40.033Z,1028.65
2018-12-30T10:16:39.801Z,1028.71
2018-12-30T10:17:39.822Z,1028.73
2018-12-30T10:18:39.808Z,1028.73
2018-12-30T10:19:39.799Z,1028.72
2018-12-30T10:20:39.795Z,1028.73
2018-12-30T10:21:39.780Z,1028.77
2018-12-30T10:22:39.768Z,1028.77
2018-12-30T10:23:39.760Z,1028.82
2018-12-30T10:24:39.772Z,1028.80
2018-12-30T10:25:39.758Z,1028.80
2018-12-30T10:26:39.759Z,1028.79
2018-12-30T10:27:39.755Z,1028.88
2018-12-30T10:28:39.743Z,1028.92
2018-12-30T10:29:39.731Z,1028.93
2018-12-30T10:30:39.723Z,1028.91
2018-12-30T10:31:39.743Z,1028.90
2018-12-30T10:32:39.716Z,1028.90
2018-12-30T10:33:39.911Z,1028.91
2018-12-30T10:34:39.706Z,1028.85
2018-12-30T10:35:39.708Z,1028.89
2018-12-30T10:36:39.707Z,1028.87
2018-12-30T10:37:39.698Z,1028.87
2018-12-30T10:38:39.695Z,1028.87
2018-12-30T10:39:39.699Z,1028.80
2018-12-30T10:40:39.884Z,1028.82
2018-12-30T10:41:39.689Z,1028.83
2018-12-30T10:42:39.660Z,1028.79
2018-12-30T10:43:39.651Z,1028.76
2018-12-30T10:44:39.860Z,1028.73
2018-12-30T10:45:39.640Z,1028.71
2018-12-30T10:46:39.635Z,1028.72
2018-12-30T10:47:39.635Z,1028.72
2018-12-30T10:48:39.636Z,1028.79
2018-12-30T10:49:39.621Z,1028.80
2018-12-30T10:50:39.623Z,1028.81
2018-12-30T10:51:39.615Z,1028.81
2018-12-30T10:52:39.608Z,1028.77
2018-12-30T10:53:39.593Z,1028.73
2018-12-30T10:54:39.589Z,1028.71
2018-12-30T10:55:39.613Z,1028.72
2018-12-30T10:56:39.588Z,1028.67
2018-12-30T10:57:39.583Z,1028.65
2018-12-30T10:58:39.570Z,1028.64
2018-12-30T10:59:39.577Z,1028.65
2018-12-30T11:00:39.758Z,1028.61
2018-12-30T11:01:39.548Z,1028.57
2018-12-30T11:02:39.552Z,1028.53
2018-12-30T11:03:39.767Z,1028.56
2018-12-30T11:04:39.546Z,1028.53
2018-12-30T11:05:39.554Z,1028.51
2018-12-30T11:06:39.550Z,1028.50
2018-12-30T11:07:39.536Z,1028.51
2018-12-30T11:08:39.511Z,1028.48
2018-12-30T11:09:39.706Z,1028.43
2018-12-30T11:10:39.508Z,1028.40
2018-12-30T11:11:39.494Z,1028.35
2018-12-30T11:12:39.690Z,1028.32
2018-12-30T11:13:39.684Z,1028.33
2018-12-30T11:14:39.474Z,1028.34
2018-12-30T11:15:39.675Z,1028.34
2018-12-30T11:16:39.468Z,1028.37
2018-12-30T11:17:39.457Z,1028.38
2018-12-30T11:18:39.467Z,1028.39
2018-12-30T11:19:39.461Z,1028.34
2018-12-30T11:20:39.444Z,1028.33
2018-12-30T11:21:39.451Z,1028.37
2018-12-30T11:22:39.445Z,1028.33
2018-12-30T11:23:39.443Z,1028.32
2018-12-30T11:24:39.463Z,1028.26
2018-12-30T11:25:39.417Z,1028.24
2018-12-30T11:26:39.424Z,1028.25
2018-12-30T11:27:39.399Z,1028.26
2018-12-30T11:28:39.399Z,1028.28
2018-12-30T11:29:39.418Z,1028.35
2018-12-30T11:30:39.420Z,1028.29
2018-12-30T11:31:39.385Z,1028.32
2018-12-30T11:32:39.390Z,1028.27
2018-12-30T11:33:39.389Z,1028.28
2018-12-30T11:34:39.367Z,1028.30
2018-12-30T11:35:39.371Z,1028.31
2018-12-30T11:36:39.362Z,1028.28
2018-12-30T11:37:39.365Z,1028.33
2018-12-30T11:38:39.349Z,1028.28
2018-12-30T11:39:39.339Z,1028.21
2018-12-30T11:40:39.329Z,1028.18
2018-12-30T11:41:39.343Z,1028.11
2018-12-30T11:42:39.539Z,1028.10
2018-12-30T11:43:39.313Z,1028.16
2018-12-30T11:44:39.305Z,1028.20
2018-12-30T11:45:39.301Z,1028.20
2018-12-30T11:46:39.295Z,1028.13
2018-12-30T11:47:39.293Z,1028.10
2018-12-30T11:48:39.282Z,1028.12
2018-12-30T11:49:39.289Z,1028.09
2018-12-30T11:50:39.271Z,1028.06
2018-12-30T11:51:39.273Z,1028.10
2018-12-30T11:52:39.264Z,1028.09
2018-12-30T11:53:39.254Z,1028.11
2018-12-30T11:54:39.262Z,1028.17
2018-12-30T11:55:39.270Z,1028.17
2018-12-30T11:56:39.443Z,1028.18
2018-12-30T11:57:39.249Z,1028.17
2018-12-30T11:58:39.234Z,1028.19
2018-12-30T11:59:39.288Z,1028.15
2018-12-30T12:00:39.226Z,1028.11
2018-12-30T12:01:39.418Z,1028.16
2018-12-30T12:02:39.210Z,1028.17
2018-12-30T12:03:39.196Z,1028.19
2018-12-30T12:04:39.202Z,1028.16
2018-12-30T12:05:39.204Z,1028.18